createdAt,value
2019-02-03T00:00:30.787Z,2.36
2019-02-03T00:03:02.751Z,2.28
2019-02-03T00:05:35.007Z,2.21
2019-02-03T00:08:07.028Z,2.25
2019-02-03T00:10:38.876Z,2.33
2019-02-03T00:13:10.699Z,2.44
2019-02-03T00:15:42.567Z,2.37
2019-02-03T00:18:14.444Z,2.33
2019-02-03T00:20:46.195Z,2.33
2019-02-03T00:23:19.054Z,2.39
2019-02-03T00:25:52.470Z,2.39
2019-02-03T00:28:24.718Z,2.34
2019-02-03T00:30:56.545Z,2.30
2019-02-03T00:33:31.497Z,2.33
2019-02-03T00:36:03.422Z,2.32
2019-02-03T00:38:37.042Z,2.52
2019-02-03T00:41:12.023Z,2.45
2019-02-03T00:43:43.794Z,2.38
2019-02-03T00:46:15.674Z,2.38
2019-02-03T00:48:47.465Z,2.36
2019-02-03T00:51:19.375Z,2.33
2019-02-03T00:53:51.203Z,2.37
2019-02-03T00:56:23.010Z,2.48
2019-02-03T00:58:54.834Z,2.54
2019-02-03T01:01:27.737Z,2.48
2019-02-03T01:04:01.118Z,2.45
2019-02-03T01:06:33.180Z,2.43
2019-02-03T01:09:11.236Z,2.40
2019-02-03T01:11:45.689Z,2.39
2019-02-03T01:14:17.470Z,2.31
2019-02-03T01:16:49.346Z,2.36
2019-02-03T01:19:21.170Z,2.21
2019-02-03T01:21:56.126Z,2.30
2019-02-03T01:24:31.006Z,2.27
2019-02-03T01:27:02.910Z,2.23
2019-02-03T01:29:35.254Z,2.23
2019-02-03T01:32:07.339Z,2.23
2019-02-03T01:34:40.302Z,2.28
2019-02-03T01:37:12.231Z,2.20
2019-02-03T01:39:44.042Z,2.26
2019-02-03T01:42:15.814Z,2.14
2019-02-03T01:44:47.791Z,2.16
2019-02-03T01:47:19.602Z,2.27
2019-02-03T01:49:51.557Z,2.25
2019-02-03T01:52:23.462Z,2.22
2019-02-03T01:54:57.618Z,2.13
2019-02-03T01:57:30.522Z,2.22
2019-02-03T02:00:04.634Z,2.14
2019-02-03T02:02:36.954Z,2.22
2019-02-03T02:05:12.157Z,2.07
2019-02-03T02:07:51.189Z,2.11
2019-02-03T02:10:21.829Z,1.95
2019-02-03T02:12:55.355Z,1.95
2019-02-03T02:15:27.339Z,1.95
2019-02-03T02:17:59.136Z,1.91
2019-02-03T02:20:31.304Z,1.85
2019-02-03T02:23:06.896Z,1.99
2019-02-03T02:25:41.877Z,1.96
2019-02-03T02:28:14.785Z,1.89
2019-02-03T02:30:46.893Z,1.87
2019-02-03T02:33:18.770Z,1.80
2019-02-03T02:35:50.848Z,1.88
2019-02-03T02:38:24.289Z,1.88
2019-02-03T02:40:56.098Z,1.90
2019-02-03T02:43:28.019Z,1.82
2019-02-03T02:45:59.851Z,1.75
2019-02-03T02:48:31.751Z,1.81
2019-02-03T02:51:03.640Z,1.84
2019-02-03T02:53:35.481Z,1.73
2019-02-03T02:56:07.442Z,1.87
2019-02-03T02:58:41.357Z,1.88
2019-02-03T03:01:13.141Z,1.97
2019-02-03T03:03:45.125Z,1.89
2019-02-03T03:06:18.461Z,1.96
2019-02-03T03:08:50.413Z,2.14
2019-02-03T03:11:22.362Z,2.03
2019-02-03T03:13:57.404Z,2.05
2019-02-03T03:16:33.106Z,2.04
2019-02-03T03:19:04.974Z,2.06
2019-02-03T03:21:37.023Z,2.04
2019-02-03T03:24:10.093Z,2.04
2019-02-03T03:26:42.178Z,2.06
2019-02-03T03:29:16.616Z,2.13
2019-02-03T03:31:48.366Z,2.16
2019-02-03T03:34:21.037Z,2.10
2019-02-03T03:36:52.942Z,2.10
2019-02-03T03:39:24.798Z,2.14
2019-02-03T03:41:56.597Z,2.12
2019-02-03T03:44:28.397Z,2.22
2019-02-03T03:47:00.174Z,2.19
2019-02-03T03:49:31.955Z,2.24
2019-02-03T03:52:03.805Z,2.11
2019-02-03T03:54:35.600Z,2.08
2019-02-03T03:57:07.846Z,2.16
2019-02-03T03:59:39.589Z,2.22
2019-02-03T04:02:11.385Z,2.13
2019-02-03T04:04:45.775Z,2.10
2019-02-03T04:07:16.779Z,2.01
2019-02-03T04:09:48.692Z,2.02
2019-02-03T04:12:20.481Z,2.00
2019-02-03T04:14:52.323Z,2.02
2019-02-03T04:17:24.253Z,2.02
2019-02-03T04:19:56.134Z,2.08
2019-02-03T04:22:27.978Z,2.09
2019-02-03T04:24:59.755Z,2.04
2019-02-03T04:27:31.542Z,1.99
2019-02-03T04:30:03.363Z,2.00
2019-02-03T04:32:35.554Z,1.94
2019-02-03T04:35:07.760Z,2.12
2019-02-03T04:37:39.563Z,2.08
2019-02-03T04:40:14.690Z,2.11
2019-02-03T04:42:46.599Z,2.03
2019-02-03T04:45:22.355Z,2.02
2019-02-03T04:47:52.760Z,2.09
2019-02-03T04:50:24.675Z,2.04
2019-02-03T04:52:56.457Z,2.01
2019-02-03T04:55:28.266Z,2.09
2019-02-03T04:58:01.120Z,2.06
2019-02-03T05:00:32.884Z,2.12
2019-02-03T05:03:04.847Z,2.16
2019-02-03T05:05:36.652Z,2.15
2019-02-03T05:08:08.593Z,2.16
2019-02-03T05:10:40.766Z,2.18
2019-02-03T05:13:12.712Z,2.18
2019-02-03T05:15:44.631Z,2.16
2019-02-03T05:18:16.812Z,2.14
2019-02-03T05:20:48.621Z,2.20
2019-02-03T05:23:20.465Z,2.24
2019-02-03T05:25:54.580Z,2.14
2019-02-03T05:28:25.912Z,2.17
2019-02-03T05:30:57.834Z,2.19
2019-02-03T05:33:29.660Z,2.24
2019-02-03T05:36:01.462Z,2.19
2019-02-03T05:38:33.280Z,2.30
2019-02-03T05:41:05.348Z,2.30
2019-02-03T05:43:37.188Z,2.22
2019-02-03T05:46:09.044Z,2.16
2019-02-03T05:48:40.950Z,2.11
2019-02-03T05:51:12.812Z,2.22
2019-02-03T05:53:44.654Z,2.18
2019-02-03T05:56:16.427Z,2.24
2019-02-03T05:58:49.300Z,2.17
2019-02-03T06:01:21.286Z,2.22
2019-02-03T06:03:53.373Z,2.23
2019-02-03T06:06:25.310Z,2.18
2019-02-03T06:08:57.114Z,2.13
2019-02-03T06:11:28.922Z,2.10
2019-02-03T06:14:00.713Z,2.06
2019-02-03T06:16:32.615Z,2.13
2019-02-03T06:19:04.546Z,2.08
2019-02-03T06:21:36.420Z,2.08
2019-02-03T06:24:08.316Z,2.08
2019-02-03T06:26:40.121Z,2.04
2019-02-03T06:29:11.912Z,2.14
2019-02-03T06:31:43.895Z,2.06
2019-02-03T06:34:15.756Z,2.05
2019-02-03T06:36:47.578Z,2.07
2019-02-03T06:39:19.701Z,2.14
2019-02-03T06:41:53.858Z,2.05
2019-02-03T06:44:25.663Z,1.87
2019-02-03T06:47:03.396Z,2.07
2019-02-03T06:49:39.847Z,2.07
2019-02-03T06:52:11.760Z,1.99
2019-02-03T06:54:45.576Z,2.07
2019-02-03T06:57:17.127Z,2.06
2019-02-03T06:59:50.946Z,2.16
2019-02-03T07:02:22.798Z,2.02
2019-02-03T07:04:54.614Z,1.92
2019-02-03T07:07:26.511Z,1.79
2019-02-03T07:10:00.690Z,1.87
2019-02-03T07:12:32.073Z,1.85
2019-02-03T07:15:05.071Z,2.08
2019-02-03T07:17:37.014Z,2.12
2019-02-03T07:20:10.139Z,2.15
2019-02-03T07:22:42.210Z,2.19
2019-02-03T07:25:14.268Z,2.04
2019-02-03T07:27:46.277Z,2.16
2019-02-03T07:30:18.183Z,2.21
2019-02-03T07:32:50.092Z,2.24
2019-02-03T07:35:21.973Z,2.24
2019-02-03T07:37:53.831Z,2.27
2019-02-03T07:40:25.679Z,2.21
2019-02-03T07:42:57.493Z,2.27
2019-02-03T07:45:29.617Z,2.04
2019-02-03T07:48:01.436Z,1.96
2019-02-03T07:50:33.373Z,2.13
2019-02-03T07:53:08.384Z,1.98
2019-02-03T07:55:38.724Z,1.94
2019-02-03T07:58:12.430Z,2.05
2019-02-03T08:00:44.309Z,2.16
2019-02-03T08:03:16.207Z,2.06
2019-02-03T08:05:48.011Z,1.83
2019-02-03T08:08:19.897Z,1.97
2019-02-03T08:10:51.732Z,1.97
2019-02-03T08:13:23.549Z,1.78
2019-02-03T08:15:55.431Z,2.11
2019-02-03T08:18:27.277Z,2.02
2019-02-03T08:20:59.217Z,2.06
2019-02-03T08:23:31.113Z,1.86
2019-02-03T08:26:02.903Z,2.07
2019-02-03T08:28:34.794Z,2.16
2019-02-03T08:31:06.709Z,1.94
2019-02-03T08:33:38.503Z,2.01
2019-02-03T08:36:11.527Z,1.34
2019-02-03T08:38:43.443Z,2.26
2019-02-03T08:41:15.240Z,2.30
2019-02-03T08:43:47.050Z,2.37
2019-02-03T08:46:18.819Z,2.29
2019-02-03T08:48:51.996Z,2.34
2019-02-03T08:51:24.072Z,2.23
2019-02-03T08:53:55.928Z,2.23
2019-02-03T08:56:28.023Z,2.12
2019-02-03T08:58:59.846Z,2.06
2019-02-03T09:01:31.679Z,2.13
2019-02-03T09:04:03.466Z,2.10
2019-02-03T09:06:35.378Z,2.09
2019-02-03T09:09:11.159Z,2.03
2019-02-03T09:11:43.082Z,2.05
2019-02-03T09:14:14.948Z,2.14
2019-02-03T09:16:46.810Z,2.24
2019-02-03T09:19:18.910Z,2.23
2019-02-03T09:21:54.436Z,2.22
2019-02-03T09:24:26.257Z,2.12
2019-02-03T09:26:59.412Z,2.14
2019-02-03T09:29:31.547Z,2.00
2019-02-03T09:32:06.636Z,2.13
2019-02-03T09:34:38.703Z,2.06
2019-02-03T09:37:10.772Z,2.07
2019-02-03T09:39:42.691Z,2.03
2019-02-03T09:42:16.147Z,1.82
2019-02-03T09:44:48.037Z,1.93
2019-02-03T09:47:20.226Z,2.08
2019-02-03T09:49:53.598Z,2.10
2019-02-03T09:52:27.239Z,2.10
2019-02-03T09:55:00.882Z,2.15
2019-02-03T09:57:32.872Z,2.17
2019-02-03T10:00:28.387Z,2.25
2019-02-03T10:03:02.423Z,2.07
2019-02-03T10:05:37.304Z,2.03
2019-02-03T10:08:10.472Z,2.07
2019-02-03T10:10:44.567Z,1.98
2019-02-03T10:13:16.499Z,1.99
2019-02-03T10:15:48.450Z,2.14
2019-02-03T10:18:20.268Z,2.12
2019-02-03T10:20:52.144Z,1.93
2019-02-03T10:23:24.091Z,2.10
2019-02-03T10:25:56.028Z,2.20
2019-02-03T10:28:27.892Z,1.92
2019-02-03T10:30:59.964Z,1.92
2019-02-03T10:33:34.002Z,1.94
2019-02-03T10:36:06.926Z,2.01
2019-02-03T10:38:39.035Z,1.80
2019-02-03T10:41:11.049Z,1.89
2019-02-03T10:43:43.171Z,1.81
2019-02-03T10:46:16.622Z,1.80
2019-02-03T10:49:09.482Z,1.87
2019-02-03T10:51:43.746Z,2.03
2019-02-03T10:54:15.738Z,2.18
2019-02-03T10:56:47.691Z,2.03
2019-02-03T10:59:19.757Z,2.15
2019-02-03T11:04:58.749Z,2.19
2019-02-03T11:07:30.766Z,1.96
2019-02-03T11:10:02.725Z,2.01
2019-02-03T11:12:35.027Z,1.94
2019-02-03T11:15:10.155Z,1.89
2019-02-03T11:17:43.345Z,1.92
2019-02-03T11:20:20.839Z,1.78
2019-02-03T11:22:52.985Z,1.90
2019-02-03T11:25:27.229Z,1.87
2019-02-03T11:27:59.584Z,1.93
2019-02-03T11:30:34.583Z,1.94
2019-02-03T11:33:09.958Z,1.78
2019-02-03T11:35:42.186Z,1.90
2019-02-03T11:56:00.102Z,2.10
2019-02-03T11:58:32.285Z,2.09
2019-02-03T12:01:04.396Z,2.00
2019-02-03T12:03:38.517Z,2.04
2019-02-03T12:06:11.105Z,1.98
2019-02-03T12:08:45.759Z,1.88
2019-02-03T12:11:17.682Z,1.85
2019-02-03T12:13:52.535Z,1.78
2019-02-03T12:16:26.068Z,1.86
2019-02-03T12:19:01.370Z,1.71
2019-02-03T12:21:36.388Z,1.71
2019-02-03T12:24:08.812Z,1.73
2019-02-03T12:26:44.182Z,1.85
2019-02-03T12:29:16.692Z,1.97
2019-02-03T12:31:52.095Z,1.92
2019-02-03T12:34:25.446Z,1.98
2019-02-03T12:37:02.263Z,1.98
2019-02-03T12:39:34.560Z,1.60
2019-02-03T12:42:13.308Z,2.00
2019-02-03T12:44:43.010Z,2.04
2019-02-03T12:47:18.994Z,1.87
2019-02-03T12:49:51.555Z,1.98
2019-02-03T12:52:23.433Z,1.99
2019-02-03T12:54:58.998Z,1.83
2019-02-03T12:57:31.025Z,1.87
2019-02-03T13:00:02.912Z,1.85
2019-02-03T13:02:36.144Z,1.79
2019-02-03T13:05:09.258Z,1.89
2019-02-03T13:07:43.821Z,1.95
2019-02-03T13:10:22.836Z,1.77
2019-02-03T13:12:57.570Z,1.91
2019-02-03T13:15:45.779Z,1.91
2019-02-03T13:18:19.081Z,2.00
2019-02-03T13:20:51.505Z,2.07
2019-02-03T13:23:23.607Z,1.98
2019-02-03T13:25:55.466Z,2.01
2019-02-03T13:28:27.380Z,2.04
2019-02-03T13:30:59.224Z,1.86
2019-02-03T13:33:31.303Z,1.93
2019-02-03T13:36:03.192Z,1.99
2019-02-03T13:38:35.448Z,2.08
2019-02-03T13:41:09.200Z,2.02
2019-02-03T13:43:41.507Z,2.15
2019-02-03T13:46:37.702Z,2.06
2019-02-03T13:49:13.359Z,1.95
2019-02-03T13:51:51.694Z,2.01
2019-02-03T13:54:27.687Z,2.10
2019-02-03T13:57:05.053Z,2.03
2019-02-03T14:06:24.074Z,2.30
2019-02-03T14:08:59.106Z,2.40
2019-02-03T14:11:31.124Z,2.45
2019-02-03T14:14:03.050Z,2.53
2019-02-03T14:16:34.965Z,2.48
2019-02-03T14:19:06.948Z,2.42
2019-02-03T14:21:38.969Z,2.35
2019-02-03T14:24:10.956Z,2.33
2019-02-03T14:26:46.342Z,2.26
2019-02-03T14:29:22.516Z,2.21
2019-02-03T14:32:11.195Z,2.25
2019-02-03T14:42:20.915Z,2.03
2019-02-03T14:45:49.502Z,2.06
2019-02-03T14:48:50.698Z,2.10
2019-02-03T14:51:51.797Z,2.12
2019-02-03T14:54:27.588Z,2.09
2019-02-03T14:56:59.659Z,2.08
2019-02-03T14:59:58.800Z,1.99
2019-02-03T15:10:26.660Z,1.89
2019-02-03T15:15:20.639Z,1.89
2019-02-03T15:24:59.744Z,1.50
2019-02-03T15:27:58.571Z,1.62
2019-02-03T15:51:04.415Z,1.68
2019-02-03T15:53:37.550Z,1.69
2019-02-03T15:56:09.380Z,1.73
2019-02-03T15:58:56.827Z,1.73
2019-02-03T16:01:22.895Z,1.79
2019-02-03T16:03:58.125Z,1.73
2019-02-03T16:06:30.053Z,1.74
2019-02-03T16:09:01.880Z,1.78
2019-02-03T16:11:35.736Z,1.68
2019-02-03T16:14:10.963Z,1.70
2019-02-03T16:16:43.116Z,1.69
2019-02-03T16:19:15.174Z,1.65
2019-02-03T16:21:47.363Z,1.62
2019-02-03T16:24:19.136Z,1.63
2019-02-03T16:26:51.020Z,1.62
2019-02-03T16:29:24.129Z,1.64
2019-02-03T16:31:56.582Z,1.67
2019-02-03T16:34:30.261Z,1.67
2019-02-03T16:37:02.303Z,1.66
2019-02-03T16:39:37.453Z,1.77
2019-02-03T16:42:09.647Z,1.70
2019-02-03T16:44:41.560Z,1.72
2019-02-03T16:47:13.450Z,1.75
2019-02-03T16:49:46.687Z,1.73
2019-02-03T16:52:18.801Z,1.70
2019-02-03T16:54:50.627Z,1.67
2019-02-03T16:57:22.798Z,1.72
2019-02-03T16:59:57.460Z,1.75
2019-02-03T17:02:34.029Z,1.77
2019-02-03T17:05:08.362Z,1.75
2019-02-03T17:07:40.740Z,1.82
2019-02-03T17:10:14.490Z,1.88
2019-02-03T17:12:46.420Z,1.88
2019-02-03T17:15:25.708Z,1.85
2019-02-03T17:17:57.531Z,1.79
2019-02-03T17:20:30.661Z,1.81
2019-02-03T17:23:10.284Z,1.82
2019-02-03T17:25:55.702Z,1.80
2019-02-03T17:28:27.624Z,1.79
2019-02-03T17:30:59.411Z,1.74
2019-02-03T17:33:31.594Z,1.83
2019-02-03T17:36:03.601Z,1.87
2019-02-03T17:38:36.786Z,1.84
2019-02-03T17:41:10.287Z,1.87
2019-02-03T17:43:43.594Z,1.83
2019-02-03T17:46:15.937Z,1.89
2019-02-03T17:48:47.867Z,1.54
2019-02-03T17:51:19.722Z,1.83
2019-02-03T17:53:55.822Z,1.84
2019-02-03T17:56:30.104Z,1.86
2019-02-03T17:59:19.219Z,1.86
2019-02-03T18:01:54.875Z,1.86
2019-02-03T18:04:28.389Z,1.82
2019-02-03T18:07:04.366Z,1.79
2019-02-03T18:09:48.168Z,1.75
2019-02-03T18:12:24.061Z,1.77
2019-02-03T18:14:56.332Z,1.77
2019-02-03T18:17:28.930Z,1.86
2019-02-03T18:20:01.561Z,1.83
2019-02-03T18:22:44.571Z,1.79
2019-02-03T18:25:31.519Z,1.83
2019-02-03T18:28:03.966Z,1.85
2019-02-03T18:30:36.157Z,1.86
2019-02-03T18:33:13.602Z,1.81
2019-02-03T18:35:45.946Z,1.85
2019-02-03T18:38:18.246Z,2.06
2019-02-03T18:40:50.424Z,1.88
2019-02-03T18:43:22.716Z,1.87
2019-02-03T18:45:54.770Z,1.79
2019-02-03T18:48:27.817Z,1.82
2019-02-03T18:51:36.142Z,1.77
2019-02-03T18:54:10.002Z,1.73
2019-02-03T18:56:41.989Z,1.70
2019-02-03T18:59:13.986Z,1.74
2019-02-03T19:01:46.317Z,1.75
2019-02-03T19:04:18.626Z,1.81
2019-02-03T19:06:52.094Z,1.78
2019-02-03T19:09:24.178Z,1.78
2019-02-03T19:11:57.732Z,1.82
2019-02-03T19:14:31.252Z,1.82
2019-02-03T19:17:06.459Z,1.82
2019-02-03T19:19:42.693Z,1.79
2019-02-03T19:22:14.821Z,1.77
2019-02-03T19:24:47.918Z,1.79
2019-02-03T19:27:23.218Z,1.74
2019-02-03T19:29:56.920Z,1.68
2019-02-03T19:32:28.808Z,1.59
2019-02-03T19:35:06.405Z,1.54
2019-02-03T19:37:37.953Z,1.58
2019-02-03T19:40:24.369Z,1.59
2019-02-03T19:42:58.991Z,1.59
2019-02-03T19:45:31.909Z,1.55
2019-02-03T19:48:04.447Z,1.56
2019-02-03T19:50:42.671Z,1.53
2019-02-03T19:53:14.758Z,1.50
2019-02-03T19:55:47.743Z,1.49
2019-02-03T19:58:19.803Z,1.48
2019-02-03T20:00:51.861Z,1.47
2019-02-03T20:03:23.739Z,1.47
2019-02-03T20:05:56.844Z,1.46
2019-02-03T20:08:31.188Z,0.74
2019-02-03T20:11:10.128Z,1.46
2019-02-03T20:13:42.341Z,1.46
2019-02-03T20:16:15.659Z,1.46
2019-02-03T20:18:47.988Z,1.46
2019-02-03T20:21:21.439Z,1.46
2019-02-03T20:23:53.498Z,1.44
2019-02-03T20:26:39.808Z,1.51
2019-02-03T20:29:12.218Z,1.48
2019-02-03T20:31:45.136Z,1.50
2019-02-03T20:34:17.969Z,1.53
2019-02-03T20:36:52.353Z,1.54
2019-02-03T20:39:26.250Z,1.49
2019-02-03T20:42:31.673Z,1.53
2019-02-03T20:45:03.629Z,1.58
2019-02-03T20:47:36.651Z,1.57
2019-02-03T20:50:12.446Z,1.63
2019-02-03T20:52:44.369Z,1.66
2019-02-03T20:55:17.170Z,1.66
2019-02-03T20:57:50.194Z,1.64
2019-02-03T21:00:25.007Z,1.57
2019-02-03T21:02:56.900Z,1.61
2019-02-03T21:05:28.868Z,1.59
2019-02-03T21:08:00.789Z,1.57
2019-02-03T21:10:32.653Z,1.59
2019-02-03T21:13:11.077Z,1.53
2019-02-03T21:15:38.914Z,1.55
2019-02-03T21:18:11.194Z,1.57
2019-02-03T21:20:43.118Z,1.57
2019-02-03T21:23:16.399Z,1.56
2019-02-03T21:25:48.385Z,1.58
2019-02-03T21:28:20.269Z,1.60
2019-02-03T21:30:52.066Z,1.57
2019-02-03T21:33:23.853Z,1.61
2019-02-03T21:35:55.697Z,1.62
2019-02-03T21:38:28.092Z,1.60
2019-02-03T21:40:59.960Z,1.54
2019-02-03T21:43:31.836Z,1.58
2019-02-03T21:46:03.651Z,1.62
2019-02-03T21:48:35.609Z,1.55
2019-02-03T21:51:07.556Z,1.60
2019-02-03T21:53:39.667Z,1.58
2019-02-03T21:56:11.541Z,1.58
2019-02-03T21:58:43.413Z,1.58
2019-02-03T22:01:15.150Z,1.62
2019-02-03T22:03:47.041Z,1.59
2019-02-03T22:06:18.852Z,1.56
2019-02-03T22:08:50.735Z,1.66
2019-02-03T22:11:22.632Z,1.63
2019-02-03T22:13:54.472Z,1.58
2019-02-03T22:16:26.231Z,1.68
2019-02-03T22:18:58.064Z,1.62
2019-02-03T22:21:29.840Z,1.65
2019-02-03T22:24:01.613Z,1.64
2019-02-03T22:26:33.452Z,1.62
2019-02-03T22:29:05.394Z,1.66
2019-02-03T22:31:37.196Z,1.66
2019-02-03T22:34:08.998Z,1.67
2019-02-03T22:36:40.848Z,1.68
2019-02-03T22:39:12.636Z,1.66
2019-02-03T22:41:47.040Z,1.67
2019-02-03T22:44:17.947Z,1.68
2019-02-03T22:46:49.720Z,1.70
2019-02-03T22:49:21.536Z,1.61
2019-02-03T22:51:53.713Z,1.64
2019-02-03T22:54:25.521Z,1.67
2019-02-03T22:56:57.300Z,1.61
2019-02-03T22:59:29.098Z,1.59
2019-02-03T23:02:00.884Z,1.63
2019-02-03T23:04:36.478Z,1.64
2019-02-03T23:07:08.295Z,1.67
2019-02-03T23:09:40.116Z,1.66
2019-02-03T23:12:11.885Z,1.62
2019-02-03T23:14:44.008Z,1.57
2019-02-03T23:17:15.876Z,1.68
2019-02-03T23:19:47.716Z,1.71
2019-02-03T23:22:19.528Z,1.67
2019-02-03T23:24:52.484Z,1.67
2019-02-03T23:27:24.288Z,1.73
2019-02-03T23:29:56.276Z,1.70
2019-02-03T23:32:28.066Z,1.70
2019-02-03T23:34:59.875Z,1.72
2019-02-03T23:37:31.690Z,1.73
2019-02-03T23:40:03.455Z,1.79
2019-02-03T23:42:35.287Z,1.75
2019-02-03T23:45:08.067Z,1.69
2019-02-03T23:47:39.961Z,1.79
2019-02-03T23:50:14.014Z,1.75
2019-02-03T23:52:45.847Z,1.78
2019-02-03T23:55:17.617Z,1.73
2019-02-03T23:57:49.488Z,1.70
